CPX990 Details

Departure: Alice Springs Airport (YBAS)
Arrival: Kingsford Smith International Airport (YSSY) at N/A
Route: KALUG A576 PKS H319 TARAL Y59 RIVET
Notes: EMPTY | NON-REVENUE REPOSITIONING LEG


Current Weather Information
YBAS 251100Z AUTO 13005KT 9999 // NCD 15/02 Q1022
YSSY 251100Z 15008KT 9999 FEW030 BKN050 16/09 Q1021 NOSIG